Time;durP1;ratioP1;P1;durP2;ratioP2;P2;SDS_P1;SDS_P2;PMS_P1;PMS_P2;Temp;Humidity;BMP_temperature;BMP_pressure;BME280_temperature;BME280_humidity;BME280_pressure;Samples;Min_cycle;Max_cycle;Signal;HPM_P1;HPM_P2
2021/12/01 00:00:33;;;;;;;0.00;0.00;;;;;;;;;;5070357;28;20127;-90
2021/12/01 00:02:58;;;;;;;0.00;0.00;;;;;;;;;;5070440;28;20511;-89
2021/12/01 00:05:25;;;;;;;0.10;0.10;;;;;;;;;;5073242;28;20033;-90
2021/12/01 00:07:51;;;;;;;0.00;0.00;;;;;;;;;;5067083;28;20090;-89
2021/12/01 00:10:18;;;;;;;0.98;0.40;;;;;;;;;;5073323;28;20051;-90
2021/12/01 00:12:44;;;;;;;0.00;0.00;;;;;;;;;;5073118;28;20404;-91
2021/12/01 00:15:09;;;;;;;0.00;0.00;;;;;;;;;;5056587;28;20124;-90
2021/12/01 00:17:35;;;;;;;0.00;0.00;;;;;;;;;;5073015;28;20508;-90
2021/12/01 00:20:00;;;;;;;0.00;0.00;;;;;;;;;;5070221;28;20036;-90
2021/12/01 00:22:26;;;;;;;0.00;0.00;;;;;;;;;;5087160;28;20040;-90
2021/12/01 00:24:52;;;;;;;0.00;0.00;;;;;;;;;;5092213;28;20472;-91
2021/12/01 00:27:17;;;;;;;0.00;0.00;;;;;;;;;;5096060;28;20073;-90
2021/12/01 00:29:42;;;;;;;0.00;0.00;;;;;;;;;;5091805;28;20123;-89
2021/12/01 00:32:08;;;;;;;0.15;0.15;;;;;;;;;;5090348;28;20411;-90
2021/12/01 00:34:34;;;;;;;0.00;0.00;;;;;;;;;;5095076;28;20020;-90
2021/12/01 00:36:59;;;;;;;1.15;1.10;;;;;;;;;;5095492;28;20055;-89
2021/12/01 00:39:24;;;;;;;0.00;0.00;;;;;;;;;;5091679;28;20044;-90
2021/12/01 00:41:51;;;;;;;0.00;0.00;;;;;;;;;;5094480;28;20048;-89
2021/12/01 00:44:16;;;;;;;0.10;0.10;;;;;;;;;;5090352;28;20032;-90
2021/12/01 00:46:45;;;;;;;0.00;0.00;;;;;;;;;;5091801;28;20377;-90
2021/12/01 00:49:11;;;;;;;0.10;0.10;;;;;;;;;;5088303;28;20047;-90
2021/12/01 00:51:36;;;;;;;0.00;0.00;;;;;;;;;;5091404;28;20066;-90
2021/12/01 00:54:01;;;;;;;0.10;0.10;;;;;;;;;;5095031;28;20036;-90
2021/12/01 00:56:27;;;;;;;0.00;0.00;;;;;;;;;;5094783;28;20024;-91
2021/12/01 00:58:52;;;;;;;0.10;0.10;;;;;;;;;;5094920;28;20491;-90
2021/12/01 01:01:17;;;;;;;1.65;0.85;;;;;;;;;;5094010;28;20036;-90
2021/12/01 01:03:43;;;;;;;0.10;0.10;;;;;;;;;;5094801;28;20028;-90
2021/12/01 01:06:09;;;;;;;0.00;0.00;;;;;;;;;;5097255;28;20028;-89
2021/12/01 01:08:34;;;;;;;0.08;0.08;;;;;;;;;;5088421;28;20392;-89
2021/12/01 01:16:24;;;;;;;1.00;1.00;;;;;;;;;;5094073;28;20078;-90
2021/12/01 01:18:54;;;;;;;0.30;0.30;;;;;;;;;;5093250;28;20036;-90
2021/12/01 01:21:20;;;;;;;0.10;0.10;;;;;;;;;;5094280;28;20040;-89
2021/12/01 01:23:46;;;;;;;0.10;0.10;;;;;;;;;;5090552;28;20032;-90
2021/12/01 01:26:13;;;;;;;0.00;0.00;;;;;;;;;;5094014;28;20373;-89
2021/12/01 01:28:38;;;;;;;2.38;0.65;;;;;;;;;;5089160;28;20063;-90
2021/12/01 01:31:04;;;;;;;0.00;0.00;;;;;;;;;;5089256;28;20032;-89
2021/12/01 01:33:29;;;;;;;0.00;0.00;;;;;;;;;;5094675;28;20487;-90
2021/12/01 01:35:55;;;;;;;0.10;0.10;;;;;;;;;;5094075;28;20418;-90
2021/12/01 01:38:20;;;;;;;1.45;1.17;;;;;;;;;;5090915;28;20028;-90
2021/12/01 01:40:45;;;;;;;0.00;0.00;;;;;;;;;;5092030;28;20379;-89
2021/12/01 01:43:11;;;;;;;0.00;0.00;;;;;;;;;;5093873;28;20119;-90
2021/12/01 01:45:36;;;;;;;0.00;0.00;;;;;;;;;;5093794;28;20046;-90
2021/12/01 01:48:06;;;;;;;5.50;2.00;;;;;;;;;;5087496;28;20016;-89
2021/12/01 01:50:38;;;;;;;0.00;0.00;;;;;;;;;;5088294;28;20122;-90
2021/12/01 01:53:08;;;;;;;0.75;0.75;;;;;;;;;;5093688;28;20024;-90
2021/12/01 01:55:34;;;;;;;0.52;0.35;;;;;;;;;;5094056;28;20419;-90
2021/12/01 01:57:59;;;;;;;0.15;0.15;;;;;;;;;;5076019;28;20028;-90
2021/12/01 02:00:25;;;;;;;0.10;0.10;;;;;;;;;;5090524;28;20042;-90
2021/12/01 02:02:51;;;;;;;0.10;0.10;;;;;;;;;;5090705;28;20032;-90
2021/12/01 02:05:16;;;;;;;0.20;0.20;;;;;;;;;;5094299;28;20028;-90
2021/12/01 02:07:43;;;;;;;0.00;0.00;;;;;;;;;;5084572;28;20047;-90
2021/12/01 02:10:08;;;;;;;0.08;0.08;;;;;;;;;;5093985;28;20031;-90
2021/12/01 02:12:34;;;;;;;0.00;0.00;;;;;;;;;;5091794;28;20069;-90
2021/12/01 02:14:59;;;;;;;0.03;0.03;;;;;;;;;;5091394;28;20020;-90
2021/12/01 02:17:24;;;;;;;0.10;0.10;;;;;;;;;;5091656;28;20510;-91
2021/12/01 02:19:53;;;;;;;0.10;0.10;;;;;;;;;;5097587;28;20381;-89
2021/12/01 02:22:18;;;;;;;0.00;0.00;;;;;;;;;;5078591;28;20027;-90
2021/12/01 02:24:46;;;;;;;0.00;0.00;;;;;;;;;;5092685;28;20040;-91
2021/12/01 02:27:12;;;;;;;0.10;0.10;;;;;;;;;;5094487;28;20032;-92
2021/12/01 02:29:37;;;;;;;0.00;0.00;;;;;;;;;;5098110;28;20098;-91
2021/12/01 02:32:03;;;;;;;0.00;0.00;;;;;;;;;;5091592;28;20032;-90
2021/12/01 02:34:31;;;;;;;0.00;0.00;;;;;;;;;;5097964;28;20097;-91
2021/12/01 02:36:57;;;;;;;0.00;0.00;;;;;;;;;;5089873;28;20020;-90
2021/12/01 02:39:23;;;;;;;0.00;0.00;;;;;;;;;;5090275;28;20042;-90
2021/12/01 02:41:53;;;;;;;0.10;0.10;;;;;;;;;;5097642;28;20052;-90
2021/12/01 02:44:18;;;;;;;0.00;0.00;;;;;;;;;;5091408;28;20483;-90
2021/12/01 02:46:44;;;;;;;0.10;0.10;;;;;;;;;;5097476;28;20066;-90
2021/12/01 02:49:10;;;;;;;1.00;0.80;;;;;;;;;;5097601;28;20035;-91
2021/12/01 02:51:37;;;;;;;0.00;0.00;;;;;;;;;;5093877;28;20024;-90
2021/12/01 02:54:03;;;;;;;0.10;0.10;;;;;;;;;;5097220;28;20024;-89
2021/12/01 02:56:29;;;;;;;0.10;0.10;;;;;;;;;;5097901;28;20024;-91
2021/12/01 02:58:56;;;;;;;0.00;0.00;;;;;;;;;;5094275;28;20517;-91
2021/12/01 03:01:22;;;;;;;0.10;0.10;;;;;;;;;;5093803;28;20044;-90
2021/12/01 03:03:48;;;;;;;0.00;0.00;;;;;;;;;;5093842;28;20055;-90
2021/12/01 03:06:13;;;;;;;0.00;0.00;;;;;;;;;;5097173;28;20042;-91
2021/12/01 03:08:43;;;;;;;2.28;1.30;;;;;;;;;;5093812;28;20036;-91
2021/12/01 03:11:09;;;;;;;0.45;0.45;;;;;;;;;;5097203;28;20475;-91
2021/12/01 03:13:34;;;;;;;0.00;0.00;;;;;;;;;;5097636;28;20046;-91
2021/12/01 03:15:59;;;;;;;0.10;0.10;;;;;;;;;;5096970;28;20035;-90
2021/12/01 03:18:25;;;;;;;0.10;0.10;;;;;;;;;;5092099;28;20024;-91
2021/12/01 03:20:51;;;;;;;0.10;0.10;;;;;;;;;;5096854;28;20070;-91
2021/12/01 03:23:17;;;;;;;0.10;0.10;;;;;;;;;;5093766;28;20032;-92
2021/12/01 03:25:42;;;;;;;0.10;0.10;;;;;;;;;;5092593;28;20032;-91
2021/12/01 03:28:08;;;;;;;0.10;0.10;;;;;;;;;;5096985;28;20031;-92
2021/12/01 03:30:34;;;;;;;0.10;0.10;;;;;;;;;;5093644;28;20032;-91
2021/12/01 03:33:03;;;;;;;0.10;0.10;;;;;;;;;;5090683;28;20420;-91
2021/12/01 03:35:29;;;;;;;0.10;0.10;;;;;;;;;;5097052;28;20023;-90
2021/12/01 03:37:54;;;;;;;0.82;0.80;;;;;;;;;;5090395;28;20032;-90
2021/12/01 03:40:20;;;;;;;0.10;0.10;;;;;;;;;;5093732;28;20487;-91
2021/12/01 03:42:45;;;;;;;0.00;0.00;;;;;;;;;;5096334;28;20044;-92
2021/12/01 03:45:12;;;;;;;0.10;0.10;;;;;;;;;;5097179;28;20118;-92
2021/12/01 03:47:37;;;;;;;0.00;0.00;;;;;;;;;;5090598;28;20078;-90
2021/12/01 03:50:03;;;;;;;0.10;0.10;;;;;;;;;;5051022;28;20405;-90
2021/12/01 03:52:29;;;;;;;0.10;0.10;;;;;;;;;;5054043;28;20083;-91
2021/12/01 03:54:54;;;;;;;0.10;0.10;;;;;;;;;;5051249;28;20040;-90
2021/12/01 03:57:19;;;;;;;0.10;0.10;;;;;;;;;;5054046;28;20036;-91
2021/12/01 03:59:45;;;;;;;0.10;0.10;;;;;;;;;;5054053;28;20049;-91
2021/12/01 04:02:10;;;;;;;0.10;0.10;;;;;;;;;;5051009;28;20523;-92
2021/12/01 04:04:36;;;;;;;0.00;0.00;;;;;;;;;;5051368;28;20108;-91
2021/12/01 04:07:01;;;;;;;0.35;0.10;;;;;;;;;;5046696;28;20033;-91
2021/12/01 04:09:30;;;;;;;0.20;0.20;;;;;;;;;;5054124;28;20479;-91
2021/12/01 04:11:56;;;;;;;0.00;0.00;;;;;;;;;;5050599;28;20029;-90
2021/12/01 04:14:21;;;;;;;0.20;0.20;;;;;;;;;;5053909;28;20036;-91
2021/12/01 04:16:47;;;;;;;0.10;0.10;;;;;;;;;;5053211;28;20123;-90
2021/12/01 04:19:12;;;;;;;0.10;0.10;;;;;;;;;;5050275;28;20428;-90
2021/12/01 04:21:38;;;;;;;0.15;0.15;;;;;;;;;;5082210;28;20412;-91
2021/12/01 04:24:03;;;;;;;0.00;0.00;;;;;;;;;;5092281;28;20118;-91
2021/12/01 04:26:32;;;;;;;0.00;0.00;;;;;;;;;;5095915;28;20025;-91
2021/12/01 04:28:58;;;;;;;0.10;0.10;;;;;;;;;;5092313;28;20064;-91
2021/12/01 04:31:23;;;;;;;0.47;0.47;;;;;;;;;;5095542;28;20051;-91
2021/12/01 04:33:48;;;;;;;0.10;0.10;;;;;;;;;;5092174;28;20031;-90
2021/12/01 04:36:16;;;;;;;0.13;0.13;;;;;;;;;;5091044;28;20039;-91
2021/12/01 04:38:42;;;;;;;0.00;0.00;;;;;;;;;;5095488;28;20031;-91
2021/12/01 04:41:08;;;;;;;0.17;0.17;;;;;;;;;;5091586;28;20134;-90
2021/12/01 04:43:34;;;;;;;0.20;0.20;;;;;;;;;;5077094;28;20392;-90
2021/12/01 04:46:00;;;;;;;0.65;0.52;;;;;;;;;;5094636;28;20028;-90
2021/12/01 04:48:28;;;;;;;0.10;0.10;;;;;;;;;;5101413;28;20502;-90
2021/12/01 04:50:54;;;;;;;0.10;0.10;;;;;;;;;;5092290;28;20031;-89
2021/12/01 04:53:19;;;;;;;0.10;0.10;;;;;;;;;;5103287;28;20380;-90
2021/12/01 04:55:45;;;;;;;0.10;0.10;;;;;;;;;;5095014;28;20027;-92
2021/12/01 04:58:10;;;;;;;0.10;0.10;;;;;;;;;;5095035;28;20063;-91
2021/12/01 05:00:37;;;;;;;0.10;0.10;;;;;;;;;;5095427;28;20036;-90
2021/12/01 05:03:02;;;;;;;0.10;0.10;;;;;;;;;;5095061;28;20019;-91
2021/12/01 05:05:28;;;;;;;1.75;0.73;;;;;;;;;;5086755;28;20392;-90
2021/12/01 05:07:53;;;;;;;0.10;0.10;;;;;;;;;;5094730;28;20020;-91
2021/12/01 05:10:18;;;;;;;0.20;0.20;;;;;;;;;;5091364;28;20024;-90
2021/12/01 05:12:44;;;;;;;0.10;0.10;;;;;;;;;;5094861;28;20043;-91
2021/12/01 05:15:09;;;;;;;0.10;0.10;;;;;;;;;;5095061;28;20035;-91
2021/12/01 05:17:35;;;;;;;0.10;0.10;;;;;;;;;;5088742;28;20019;-91
2021/12/01 05:20:01;;;;;;;0.10;0.10;;;;;;;;;;5094175;28;20048;-90
2021/12/01 05:22:26;;;;;;;0.00;0.00;;;;;;;;;;5091532;28;20054;-90
2021/12/01 05:24:52;;;;;;;0.10;0.10;;;;;;;;;;5091008;28;20016;-90
2021/12/01 05:27:17;;;;;;;0.10;0.10;;;;;;;;;;5090920;28;20439;-90
2021/12/01 05:29:43;;;;;;;0.10;0.10;;;;;;;;;;5088294;28;20081;-90
2021/12/01 05:32:08;;;;;;;0.10;0.10;;;;;;;;;;5094202;28;20437;-90
2021/12/01 05:34:33;;;;;;;0.00;0.00;;;;;;;;;;5094390;28;20490;-90
2021/12/01 05:37:01;;;;;;;0.10;0.10;;;;;;;;;;5094971;28;20020;-92
2021/12/01 05:39:27;;;;;;;0.05;0.05;;;;;;;;;;5094934;28;20027;-90
2021/12/01 05:41:53;;;;;;;0.10;0.10;;;;;;;;;;5088515;28;20051;-90
2021/12/01 05:44:18;;;;;;;0.10;0.10;;;;;;;;;;5091293;28;20115;-91
2021/12/01 05:46:43;;;;;;;0.10;0.10;;;;;;;;;;5086103;28;20020;-91
2021/12/01 05:49:09;;;;;;;0.10;0.10;;;;;;;;;;5091014;28;20034;-90
2021/12/01 05:51:34;;;;;;;0.10;0.10;;;;;;;;;;5093999;28;20028;-91
2021/12/01 05:54:00;;;;;;;0.10;0.10;;;;;;;;;;5093944;28;20017;-90
2021/12/01 05:56:26;;;;;;;0.10;0.10;;;;;;;;;;5094077;28;20480;-90
2021/12/01 05:58:51;;;;;;;0.10;0.10;;;;;;;;;;5094434;28;20020;-93
2021/12/01 06:01:16;;;;;;;0.10;0.10;;;;;;;;;;5087857;28;20062;-90
2021/12/01 06:03:43;;;;;;;0.10;0.10;;;;;;;;;;5086322;28;20032;-91
2021/12/01 06:06:08;;;;;;;0.55;0.55;;;;;;;;;;5093536;28;21058;-89
2021/12/01 06:08:34;;;;;;;0.10;0.10;;;;;;;;;;5094074;28;20048;-91
2021/12/01 06:10:59;;;;;;;0.10;0.10;;;;;;;;;;5093890;28;20020;-91
2021/12/01 06:13:25;;;;;;;0.10;0.10;;;;;;;;;;5089411;28;20115;-92
2021/12/01 06:15:51;;;;;;;0.10;0.10;;;;;;;;;;5087980;28;20525;-91
2021/12/01 06:18:16;;;;;;;0.10;0.10;;;;;;;;;;5090548;28;20040;-90
2021/12/01 06:20:41;;;;;;;0.15;0.15;;;;;;;;;;5090759;28;20036;-90
2021/12/01 06:23:07;;;;;;;0.10;0.10;;;;;;;;;;5094021;28;20027;-91
2021/12/01 06:25:32;;;;;;;0.10;0.10;;;;;;;;;;5088819;28;20238;-91
2021/12/01 06:27:57;;;;;;;0.10;0.10;;;;;;;;;;5093927;28;20021;-90
2021/12/01 06:30:24;;;;;;;0.10;0.10;;;;;;;;;;5094155;28;20020;-91
2021/12/01 06:32:50;;;;;;;0.10;0.10;;;;;;;;;;5093705;28;20111;-90
2021/12/01 06:35:15;;;;;;;0.10;0.10;;;;;;;;;;5093848;28;20420;-90
2021/12/01 06:37:41;;;;;;;0.10;0.10;;;;;;;;;;5093652;28;20020;-90
2021/12/01 06:40:07;;;;;;;0.10;0.10;;;;;;;;;;5085805;28;20070;-90
2021/12/01 06:42:33;;;;;;;0.10;0.10;;;;;;;;;;5093858;28;20048;-89
2021/12/01 06:44:59;;;;;;;0.10;0.10;;;;;;;;;;5093614;28;20391;-89
2021/12/01 06:47:24;;;;;;;0.10;0.10;;;;;;;;;;5087210;28;20043;-90
2021/12/01 06:49:49;;;;;;;0.00;0.00;;;;;;;;;;5093492;28;20064;-90
2021/12/01 06:52:15;;;;;;;0.10;0.10;;;;;;;;;;5090388;28;20055;-90
2021/12/01 06:54:41;;;;;;;0.10;0.10;;;;;;;;;;5093773;28;20418;-91
2021/12/01 06:57:06;;;;;;;0.00;0.00;;;;;;;;;;5093680;28;20024;-91
2021/12/01 06:59:31;;;;;;;0.00;0.00;;;;;;;;;;5094742;28;20035;-91
2021/12/01 07:01:56;;;;;;;0.10;0.10;;;;;;;;;;5092417;28;20469;-91
2021/12/01 07:04:22;;;;;;;0.10;0.10;;;;;;;;;;5093890;28;20107;-90
2021/12/01 07:06:47;;;;;;;0.00;0.00;;;;;;;;;;5097392;28;20026;-91
2021/12/01 07:09:18;;;;;;;0.30;0.30;;;;;;;;;;5097133;28;20031;-91
2021/12/01 07:11:44;;;;;;;0.10;0.10;;;;;;;;;;5097218;28;20028;-91
2021/12/01 07:14:09;;;;;;;0.08;0.08;;;;;;;;;;5097132;28;20016;-90
2021/12/01 07:16:34;;;;;;;0.10;0.10;;;;;;;;;;5093604;28;20028;-91
2021/12/01 07:19:00;;;;;;;1.52;0.90;;;;;;;;;;5093388;28;20067;-89
2021/12/01 07:21:25;;;;;;;0.10;0.10;;;;;;;;;;5096800;28;20028;-90
2021/12/01 07:23:50;;;;;;;0.10;0.10;;;;;;;;;;5096968;28;20028;-90
2021/12/01 07:26:16;;;;;;;0.20;0.20;;;;;;;;;;5090165;28;20546;-90
2021/12/01 07:28:41;;;;;;;0.10;0.10;;;;;;;;;;5093382;28;20028;-91
2021/12/01 07:31:06;;;;;;;0.00;0.00;;;;;;;;;;5093135;28;20084;-91
2021/12/01 07:33:32;;;;;;;1.77;1.63;;;;;;;;;;5093398;28;20476;-91
2021/12/01 07:35:57;;;;;;;0.10;0.10;;;;;;;;;;5096751;28;20016;-90
2021/12/01 07:38:22;;;;;;;0.10;0.10;;;;;;;;;;5093358;28;20040;-89
2021/12/01 07:40:48;;;;;;;0.57;0.30;;;;;;;;;;5092964;28;20048;-90
2021/12/01 07:43:13;;;;;;;0.10;0.10;;;;;;;;;;5096379;28;20077;-90
2021/12/01 07:45:43;;;;;;;0.10;0.10;;;;;;;;;;5096418;28;20031;-92
2021/12/01 07:48:08;;;;;;;0.10;0.10;;;;;;;;;;5096109;28;20081;-91
2021/12/01 07:50:33;;;;;;;0.10;0.10;;;;;;;;;;5093177;28;20024;-91
2021/12/01 07:52:58;;;;;;;0.10;0.10;;;;;;;;;;5072503;28;20037;-90
2021/12/01 07:55:24;;;;;;;0.10;0.10;;;;;;;;;;5075289;28;20031;-90
2021/12/01 07:57:49;;;;;;;0.10;0.10;;;;;;;;;;5092695;28;20055;-90
2021/12/01 08:00:14;;;;;;;0.10;0.10;;;;;;;;;;5095899;28;20110;-91
2021/12/01 08:02:40;;;;;;;0.75;0.25;;;;;;;;;;5088607;28;20036;-92
2021/12/01 08:05:06;;;;;;;0.15;0.15;;;;;;;;;;5096032;28;20016;-91
2021/12/01 08:07:35;;;;;;;0.10;0.10;;;;;;;;;;5096093;28;20028;-90
2021/12/01 08:10:00;;;;;;;0.10;0.10;;;;;;;;;;5092677;28;20035;-87
2021/12/01 08:12:25;;;;;;;1.35;0.95;;;;;;;;;;5095360;28;20016;-89
2021/12/01 08:14:51;;;;;;;0.10;0.10;;;;;;;;;;5095420;28;20031;-89
2021/12/01 08:17:16;;;;;;;0.32;0.32;;;;;;;;;;5095106;28;20024;-89
2021/12/01 08:19:41;;;;;;;0.73;0.73;;;;;;;;;;5095687;28;20082;-89
2021/12/01 08:22:09;;;;;;;0.75;0.75;;;;;;;;;;5095547;28;20036;-90
2021/12/01 08:24:34;;;;;;;0.10;0.10;;;;;;;;;;5095052;28;20024;-90
2021/12/01 08:26:59;;;;;;;0.10;0.10;;;;;;;;;;5090520;28;20522;-89
2021/12/01 08:29:24;;;;;;;0.10;0.10;;;;;;;;;;5094188;28;20028;-89
2021/12/01 08:31:50;;;;;;;0.10;0.10;;;;;;;;;;5095161;28;20024;-89
2021/12/01 08:34:15;;;;;;;0.10;0.10;;;;;;;;;;5095227;28;20020;-90
2021/12/01 08:36:40;;;;;;;0.75;0.57;;;;;;;;;;5092067;28;20032;-88
2021/12/01 08:39:06;;;;;;;0.43;0.43;;;;;;;;;;5095278;28;20028;-89
2021/12/01 08:41:31;;;;;;;0.10;0.10;;;;;;;;;;5091831;28;20051;-90
2021/12/01 08:43:56;;;;;;;0.10;0.10;;;;;;;;;;5095185;28;20028;-90
2021/12/01 08:46:21;;;;;;;0.10;0.10;;;;;;;;;;5091838;28;20467;-90
2021/12/01 08:48:47;;;;;;;2.40;2.20;;;;;;;;;;5095051;28;20073;-89
2021/12/01 08:51:12;;;;;;;0.20;0.20;;;;;;;;;;5095011;28;20032;-90
2021/12/01 08:53:40;;;;;;;0.10;0.10;;;;;;;;;;5095084;28;20035;-90
2021/12/01 08:56:05;;;;;;;1.00;0.52;;;;;;;;;;5094880;28;20008;-92
2021/12/01 08:58:31;;;;;;;0.10;0.10;;;;;;;;;;5090760;28;20097;-90
2021/12/01 09:00:56;;;;;;;0.10;0.10;;;;;;;;;;5089140;28;20044;-89
2021/12/01 09:03:23;;;;;;;0.10;0.10;;;;;;;;;;5088814;28;20020;-90
2021/12/01 09:05:48;;;;;;;0.10;0.10;;;;;;;;;;5092101;28;20032;-90
2021/12/01 09:08:14;;;;;;;0.15;0.15;;;;;;;;;;5086076;28;20059;-91
2021/12/01 09:10:40;;;;;;;0.98;0.98;;;;;;;;;;5092554;28;20019;-91
2021/12/01 09:13:06;;;;;;;0.10;0.10;;;;;;;;;;5092557;28;20081;-90
2021/12/01 09:15:31;;;;;;;0.15;0.15;;;;;;;;;;5092712;28;20028;-92
2021/12/01 09:17:57;;;;;;;0.00;0.00;;;;;;;;;;5088851;28;20388;-91
2021/12/01 09:20:23;;;;;;;0.00;0.00;;;;;;;;;;5092369;28;20360;-91
2021/12/01 09:22:48;;;;;;;0.30;0.30;;;;;;;;;;5091443;28;20380;-90
2021/12/01 09:25:13;;;;;;;0.20;0.20;;;;;;;;;;5086740;28;20039;-91
2021/12/01 09:27:38;;;;;;;3.08;1.48;;;;;;;;;;5073414;28;20039;-88
2021/12/01 09:30:05;;;;;;;0.25;0.25;;;;;;;;;;5089163;28;20618;-91
2021/12/01 09:32:33;;;;;;;0.82;0.77;;;;;;;;;;5087444;28;20039;-91
2021/12/01 09:34:59;;;;;;;0.25;0.25;;;;;;;;;;5086181;28;20036;-90
2021/12/01 09:37:24;;;;;;;0.00;0.00;;;;;;;;;;5091572;28;20035;-90
2021/12/01 09:39:50;;;;;;;0.00;0.00;;;;;;;;;;5091458;28;20064;-90
2021/12/01 09:42:15;;;;;;;0.15;0.15;;;;;;;;;;5086874;28;20051;-89
2021/12/01 09:44:40;;;;;;;0.60;0.60;;;;;;;;;;5092369;28;20030;-90
2021/12/01 09:47:06;;;;;;;0.88;0.77;;;;;;;;;;5088268;28;20476;-89
2021/12/01 09:49:31;;;;;;;0.00;0.00;;;;;;;;;;5088503;28;20056;-90
2021/12/01 09:51:56;;;;;;;4.03;2.05;;;;;;;;;;5091795;28;20025;-90
2021/12/01 09:54:22;;;;;;;0.10;0.10;;;;;;;;;;5069141;28;20029;-89
2021/12/01 09:56:47;;;;;;;2.38;0.63;;;;;;;;;;5069230;28;20041;-91
2021/12/01 09:59:13;;;;;;;2.30;1.85;;;;;;;;;;5069706;28;20041;-90
2021/12/01 10:01:38;;;;;;;0.50;0.50;;;;;;;;;;5069147;28;20032;-90
2021/12/01 10:04:04;;;;;;;0.03;0.03;;;;;;;;;;5065906;28;20119;-90
2021/12/01 10:06:29;;;;;;;0.20;0.20;;;;;;;;;;5069135;28;20032;-91
2021/12/01 10:08:56;;;;;;;0.63;0.50;;;;;;;;;;5068736;28;20029;-89
2021/12/01 10:11:26;;;;;;;0.15;0.15;;;;;;;;;;5066565;28;20040;-91
2021/12/01 10:13:54;;;;;;;0.70;0.70;;;;;;;;;;5068656;28;20090;-88
2021/12/01 10:16:20;;;;;;;0.00;0.00;;;;;;;;;;5063563;28;20027;-89
2021/12/01 10:18:47;;;;;;;0.10;0.10;;;;;;;;;;5068836;28;20032;-90
2021/12/01 10:21:12;;;;;;;0.10;0.10;;;;;;;;;;5068787;28;20049;-90
2021/12/01 10:23:40;;;;;;;0.15;0.15;;;;;;;;;;5066289;28;20025;-90
2021/12/01 10:26:25;;;;;;;1.40;1.30;;;;;;;;;;5083815;28;20044;-89
2021/12/01 10:28:55;;;;;;;0.10;0.10;;;;;;;;;;5088511;28;20027;-88
2021/12/01 10:31:35;;;;;;;0.08;0.08;;;;;;;;;;5091953;28;20042;-88
2021/12/01 10:34:19;;;;;;;0.10;0.10;;;;;;;;;;5085259;28;20107;-89
2021/12/01 10:36:45;;;;;;;0.10;0.10;;;;;;;;;;5091710;28;20028;-88
2021/12/01 10:39:11;;;;;;;12.05;0.80;;;;;;;;;;5090454;28;20054;-89
2021/12/01 10:41:38;;;;;;;0.10;0.10;;;;;;;;;;5094758;28;20552;-89
2021/12/01 10:44:09;;;;;;;0.95;0.95;;;;;;;;;;5091787;28;20107;-89
2021/12/01 10:46:44;;;;;;;0.10;0.10;;;;;;;;;;5091462;28;20043;-90
2021/12/01 10:49:09;;;;;;;0.10;0.10;;;;;;;;;;5095022;28;20039;-89
2021/12/01 10:51:36;;;;;;;0.30;0.30;;;;;;;;;;5087342;28;20020;-89
2021/12/01 10:54:01;;;;;;;0.38;0.38;;;;;;;;;;5076748;28;20071;-88
2021/12/01 10:56:27;;;;;;;0.10;0.10;;;;;;;;;;5094923;28;20055;-91
2021/12/01 10:58:52;;;;;;;0.47;0.45;;;;;;;;;;5091441;28;20012;-90
2021/12/01 11:01:19;;;;;;;0.70;0.30;;;;;;;;;;5094523;28;20039;-89
2021/12/01 11:03:45;;;;;;;0.10;0.10;;;;;;;;;;5094675;28;20085;-88
2021/12/01 11:06:14;;;;;;;0.08;0.08;;;;;;;;;;5091550;28;20016;-88
2021/12/01 11:08:40;;;;;;;0.17;0.17;;;;;;;;;;5095051;28;20028;-89
2021/12/01 11:11:07;;;;;;;0.00;0.00;;;;;;;;;;5094451;28;20020;-89
2021/12/01 11:13:33;;;;;;;6.25;1.38;;;;;;;;;;5087699;28;20024;-89
2021/12/01 11:16:02;;;;;;;0.57;0.57;;;;;;;;;;5090967;28;20035;-91
2021/12/01 11:18:29;;;;;;;0.10;0.10;;;;;;;;;;5094443;28;20020;-90
2021/12/01 11:20:55;;;;;;;9.35;2.03;;;;;;;;;;5090840;28;20039;-90
2021/12/01 11:23:21;;;;;;;0.10;0.10;;;;;;;;;;5094426;28;20663;-89
2021/12/01 11:25:51;;;;;;;0.10;0.10;;;;;;;;;;5094287;28;20019;-89
2021/12/01 11:28:17;;;;;;;0.25;0.25;;;;;;;;;;5094543;28;20069;-90
2021/12/01 11:30:44;;;;;;;0.10;0.10;;;;;;;;;;5091072;28;20040;-89
2021/12/01 11:33:13;;;;;;;0.00;0.00;;;;;;;;;;5076004;28;20020;-90
2021/12/01 11:35:38;;;;;;;0.47;0.47;;;;;;;;;;5094189;28;20376;-89
2021/12/01 11:38:04;;;;;;;0.10;0.10;;;;;;;;;;5093060;28;20039;-90
2021/12/01 11:40:30;;;;;;;0.00;0.00;;;;;;;;;;5090567;28;20047;-90
2021/12/01 11:42:56;;;;;;;0.20;0.20;;;;;;;;;;5093724;28;20040;-89
2021/12/01 11:45:22;;;;;;;0.10;0.10;;;;;;;;;;5089957;28;20032;-89
2021/12/01 11:47:47;;;;;;;0.85;0.45;;;;;;;;;;5093374;28;20012;-89
2021/12/01 11:50:33;;;;;;;0.20;0.20;;;;;;;;;;5088491;28;20077;-90
2021/12/01 11:53:20;;;;;;;0.10;0.10;;;;;;;;;;5091498;28;20067;-88
2021/12/01 11:55:57;;;;;;;1.00;0.95;;;;;;;;;;5075515;28;20055;-89
2021/12/01 11:58:52;;;;;;;0.10;0.10;;;;;;;;;;5078375;28;20028;-89
2021/12/01 12:01:20;;;;;;;0.05;0.05;;;;;;;;;;5069943;28;20044;-89
2021/12/01 12:03:46;;;;;;;0.30;0.30;;;;;;;;;;5092329;28;20032;-88
2021/12/01 12:06:21;;;;;;;0.10;0.10;;;;;;;;;;5093245;28;20034;-89
2021/12/01 12:09:06;;;;;;;1.23;0.80;;;;;;;;;;5093361;28;20098;-89
2021/12/01 12:11:32;;;;;;;0.52;0.52;;;;;;;;;;5092052;28;20814;-88
2021/12/01 12:13:58;;;;;;;0.00;0.00;;;;;;;;;;5093047;28;20020;-89
2021/12/01 12:16:23;;;;;;;0.00;0.00;;;;;;;;;;5093048;28;20149;-89
2021/12/01 12:18:49;;;;;;;0.75;0.75;;;;;;;;;;5092260;28;20540;-89
2021/12/01 12:22:04;;;;;;;0.00;0.00;;;;;;;;;;5089601;28;20124;-88
2021/12/01 12:24:17;;;;;;;0.17;0.17;;;;;;;;;;5082089;28;20058;-89
2021/12/01 12:26:45;;;;;;;0.05;0.05;;;;;;;;;;5091197;28;20817;-88
2021/12/01 12:29:15;;;;;;;0.10;0.10;;;;;;;;;;5092927;28;20484;-90
2021/12/01 12:31:41;;;;;;;0.10;0.10;;;;;;;;;;5092364;28;20062;-89
2021/12/01 12:34:12;;;;;;;0.00;0.00;;;;;;;;;;5092792;28;20059;-89
2021/12/01 12:36:37;;;;;;;0.10;0.10;;;;;;;;;;5092934;28;20056;-89
2021/12/01 12:39:04;;;;;;;0.10;0.10;;;;;;;;;;5091410;28;20082;-89
2021/12/01 12:41:29;;;;;;;3.42;2.72;;;;;;;;;;5092425;28;20098;-90
2021/12/01 12:43:54;;;;;;;0.10;0.10;;;;;;;;;;5089158;28;20036;-88
2021/12/01 12:46:20;;;;;;;0.10;0.10;;;;;;;;;;5074540;28;20024;-90
2021/12/01 12:48:50;;;;;;;0.10;0.10;;;;;;;;;;5092244;28;20043;-90
2021/12/01 12:51:32;;;;;;;1.35;1.20;;;;;;;;;;5095293;28;20078;-89
2021/12/01 12:54:04;;;;;;;5.85;0.77;;;;;;;;;;5072653;28;20112;-89
2021/12/01 12:56:29;;;;;;;0.00;0.00;;;;;;;;;;5059381;28;20080;-89
2021/12/01 12:59:13;;;;;;;0.10;0.10;;;;;;;;;;5092245;28;20027;-90
2021/12/01 13:01:38;;;;;;;0.10;0.10;;;;;;;;;;5088515;28;20048;-90
2021/12/01 13:04:05;;;;;;;0.00;0.00;;;;;;;;;;5090496;28;20511;-91
2021/12/01 13:06:31;;;;;;;0.00;0.00;;;;;;;;;;5091833;28;20019;-90
2021/12/01 13:09:16;;;;;;;0.10;0.10;;;;;;;;;;5092651;28;20024;-90
2021/12/01 13:11:41;;;;;;;0.00;0.00;;;;;;;;;;5088685;28;20055;-89
2021/12/01 13:14:07;;;;;;;4.47;1.17;;;;;;;;;;5093278;28;20104;-90
2021/12/01 13:16:32;;;;;;;0.10;0.10;;;;;;;;;;5092017;28;20166;-91
2021/12/01 13:19:06;;;;;;;0.10;0.10;;;;;;;;;;5086396;28;20027;-91
2021/12/01 13:21:34;;;;;;;0.10;0.10;;;;;;;;;;5069990;28;20075;-91
2021/12/01 13:24:00;;;;;;;0.00;0.00;;;;;;;;;;5088875;28;20045;-91
2021/12/01 13:26:32;;;;;;;0.10;0.10;;;;;;;;;;5088748;28;20107;-91
2021/12/01 13:29:03;;;;;;;0.00;0.00;;;;;;;;;;5090064;28;20032;-89
2021/12/01 13:31:31;;;;;;;0.00;0.00;;;;;;;;;;5090410;28;20058;-91
2021/12/01 13:33:58;;;;;;;1.45;0.75;;;;;;;;;;5089608;28;20024;-88
2021/12/01 13:36:24;;;;;;;0.35;0.32;;;;;;;;;;5089736;28;20024;-90
2021/12/01 13:39:15;;;;;;;0.10;0.10;;;;;;;;;;5086673;28;20491;-89
2021/12/01 13:41:46;;;;;;;0.10;0.10;;;;;;;;;;5065547;28;20054;-89
2021/12/01 13:44:19;;;;;;;0.10;0.10;;;;;;;;;;5090039;28;20169;-90
2021/12/01 13:46:45;;;;;;;0.20;0.20;;;;;;;;;;5089757;28;20036;-90
2021/12/01 13:49:11;;;;;;;0.10;0.10;;;;;;;;;;5071712;28;20083;-90
2021/12/01 13:51:40;;;;;;;0.00;0.00;;;;;;;;;;5090742;28;20077;-90
2021/12/01 13:54:16;;;;;;;0.00;0.00;;;;;;;;;;5090084;28;20499;-89
2021/12/01 13:56:41;;;;;;;1.00;1.00;;;;;;;;;;5090201;28;20032;-89
2021/12/01 13:59:07;;;;;;;0.10;0.10;;;;;;;;;;5090538;28;20032;-89
2021/12/01 14:01:32;;;;;;;0.10;0.10;;;;;;;;;;5069483;28;20071;-90
2021/12/01 14:04:00;;;;;;;0.10;0.10;;;;;;;;;;5089964;28;20091;-90
2021/12/01 14:06:33;;;;;;;0.05;0.05;;;;;;;;;;5089909;28;20081;-90
2021/12/01 14:09:02;;;;;;;0.47;0.43;;;;;;;;;;5073637;28;20054;-90
2021/12/01 14:11:32;;;;;;;0.00;0.00;;;;;;;;;;5093805;28;20028;-91
2021/12/01 14:13:59;;;;;;;0.30;0.30;;;;;;;;;;5093558;28;20048;-90
2021/12/01 14:16:25;;;;;;;0.05;0.05;;;;;;;;;;5081991;28;20020;-90
2021/12/01 14:18:51;;;;;;;0.00;0.00;;;;;;;;;;5094726;28;20111;-91
2021/12/01 14:21:21;;;;;;;0.30;0.30;;;;;;;;;;5093658;28;20777;-90
2021/12/01 14:23:47;;;;;;;0.00;0.00;;;;;;;;;;5075456;28;20024;-90
2021/12/01 14:26:13;;;;;;;0.00;0.00;;;;;;;;;;5093821;28;20034;-90
2021/12/01 14:28:39;;;;;;;0.10;0.10;;;;;;;;;;5088783;28;20119;-90
2021/12/01 14:31:05;;;;;;;0.10;0.10;;;;;;;;;;5090310;28;20028;-91
2021/12/01 14:33:31;;;;;;;0.00;0.00;;;;;;;;;;5093809;28;20046;-90
2021/12/01 14:36:03;;;;;;;0.10;0.10;;;;;;;;;;5087659;28;20415;-90
2021/12/01 14:38:32;;;;;;;0.10;0.10;;;;;;;;;;5093714;28;20019;-91
2021/12/01 14:40:58;;;;;;;0.10;0.10;;;;;;;;;;5093237;28;20040;-90
2021/12/01 14:43:27;;;;;;;4.85;0.85;;;;;;;;;;5093192;28;20089;-90
2021/12/01 14:45:52;;;;;;;0.00;0.00;;;;;;;;;;5093301;28;20061;-93